Time;durP1;ratioP1;P1;durP2;ratioP2;P2;SDS_P1;SDS_P2;PMS_P1;PMS_P2;Temp;Humidity;BMP_temperature;BMP_pressure;BME280_temperature;BME280_humidity;BME280_pressure;Samples;Min_cycle;Max_cycle;Signal;HPM_P1;HPM_P2
2022/08/06 08:07:12;;;;;;;2.00;0.10;;;;;;;;;;5084838;28;20090;-77
2022/08/06 08:09:38;;;;;;;1.58;0.10;;;;;;;;;;5073947;28;20029;-77
2022/08/06 08:12:05;;;;;;;1.85;0.10;;;;;;;;;;5067068;28;20016;-76
2022/08/06 08:14:30;;;;;;;1.63;0.10;;;;;;;;;;5089310;28;20645;-75
2022/08/06 08:16:55;;;;;;;3.38;0.10;;;;;;;;;;5086362;28;20154;-76
2022/08/06 08:19:24;;;;;;;0.63;0.10;;;;;;;;;;5084311;28;20162;-76
2022/08/06 08:21:53;;;;;;;0.43;0.03;;;;;;;;;;5067273;28;20024;-76
2022/08/06 08:24:18;;;;;;;1.33;0.10;;;;;;;;;;5075463;28;20013;-75
2022/08/06 08:26:44;;;;;;;0.90;0.10;;;;;;;;;;5070449;28;20030;-76
2022/08/06 08:29:09;;;;;;;1.55;0.30;;;;;;;;;;5069002;28;20421;-76
2022/08/06 08:31:35;;;;;;;1.23;0.15;;;;;;;;;;5052072;28;20020;-76
2022/08/06 08:34:00;;;;;;;1.52;0.20;;;;;;;;;;5068976;28;20016;-77
2022/08/06 08:36:26;;;;;;;1.17;0.10;;;;;;;;;;5081356;28;20059;-76
2022/08/06 08:38:56;;;;;;;1.58;0.10;;;;;;;;;;5063796;28;20040;-75
2022/08/06 08:41:41;;;;;;;0.55;0.10;;;;;;;;;;5070238;28;20495;-76
2022/08/06 08:44:07;;;;;;;0.40;0.08;;;;;;;;;;5045477;28;20385;-77
2022/08/06 08:46:34;;;;;;;0.57;0.00;;;;;;;;;;5067415;28;20038;-75
2022/08/06 08:49:03;;;;;;;0.60;0.10;;;;;;;;;;5079720;28;20020;-75
2022/08/06 08:51:30;;;;;;;0.85;0.10;;;;;;;;;;5077190;28;20387;-74
2022/08/06 08:53:59;;;;;;;1.85;0.13;;;;;;;;;;5063200;28;20478;-76
2022/08/06 08:56:25;;;;;;;1.00;0.10;;;;;;;;;;5079577;28;20040;-77
2022/08/06 08:58:51;;;;;;;0.57;0.10;;;;;;;;;;5078266;28;20043;-77
2022/08/06 09:01:17;;;;;;;0.63;0.10;;;;;;;;;;5083965;28;20047;-77
2022/08/06 09:03:43;;;;;;;1.35;0.10;;;;;;;;;;5031411;28;20162;-76
2022/08/06 09:06:08;;;;;;;2.10;0.10;;;;;;;;;;5059540;28;20016;-76
2022/08/06 09:08:35;;;;;;;3.20;0.10;;;;;;;;;;5064611;28;20404;-75
2022/08/06 09:11:01;;;;;;;1.55;0.10;;;;;;;;;;5067747;28;20068;-75
2022/08/06 09:13:27;;;;;;;0.65;0.10;;;;;;;;;;5066441;28;20394;-77
2022/08/06 09:15:53;;;;;;;2.33;0.10;;;;;;;;;;5036090;28;20475;-75
2022/08/06 09:18:21;;;;;;;1.23;0.00;;;;;;;;;;5054101;28;20031;-76
2022/08/06 09:20:46;;;;;;;1.33;0.10;;;;;;;;;;5027284;28;20422;-75
2022/08/06 09:23:12;;;;;;;1.05;0.10;;;;;;;;;;5025926;28;20036;-75
2022/08/06 09:25:46;;;;;;;0.50;0.10;;;;;;;;;;5046981;28;20032;-75
2022/08/06 09:28:26;;;;;;;1.50;0.10;;;;;;;;;;5023633;28;20020;-78
2022/08/06 09:31:02;;;;;;;0.90;0.10;;;;;;;;;;5050717;28;20272;-76
2022/08/06 09:33:29;;;;;;;0.00;0.00;;;;;;;;;;5029940;28;20029;-78
2022/08/06 09:35:58;;;;;;;0.50;0.10;;;;;;;;;;5047893;28;20017;-78
2022/08/06 09:38:24;;;;;;;0.88;0.00;;;;;;;;;;5044929;28;20028;-78
2022/08/06 09:41:09;;;;;;;0.40;0.10;;;;;;;;;;5029723;28;20399;-78
2022/08/06 09:43:35;;;;;;;0.60;0.10;;;;;;;;;;5027606;28;20031;-75
2022/08/06 09:46:00;;;;;;;0.80;0.10;;;;;;;;;;5046393;28;20029;-78
2022/08/06 09:48:26;;;;;;;0.98;0.17;;;;;;;;;;5045538;28;20032;-79
2022/08/06 09:50:51;;;;;;;3.72;0.30;;;;;;;;;;5026694;28;20029;-77
2022/08/06 09:53:17;;;;;;;2.78;0.00;;;;;;;;;;5047881;28;20040;-78
2022/08/06 09:55:43;;;;;;;0.55;0.00;;;;;;;;;;5033905;28;20033;-80
2022/08/06 09:58:09;;;;;;;1.38;0.08;;;;;;;;;;5035374;28;20026;-80
2022/08/06 10:00:35;;;;;;;0.93;0.10;;;;;;;;;;5034968;28;20029;-78
2022/08/06 10:03:04;;;;;;;1.13;0.10;;;;;;;;;;5050667;28;20037;-78
2022/08/06 10:05:30;;;;;;;0.32;0.00;;;;;;;;;;5029000;28;21611;-79
2022/08/06 10:08:03;;;;;;;0.55;0.10;;;;;;;;;;5033974;28;20013;-79
2022/08/06 10:10:48;;;;;;;0.10;0.00;;;;;;;;;;5031308;28;20028;-77
2022/08/06 10:13:26;;;;;;;0.65;0.00;;;;;;;;;;5030071;28;20040;-76
2022/08/06 10:15:53;;;;;;;0.70;0.10;;;;;;;;;;5030948;28;20375;-76
2022/08/06 10:18:31;;;;;;;0.65;0.00;;;;;;;;;;5027420;28;20025;-77
2022/08/06 10:21:07;;;;;;;0.85;0.00;;;;;;;;;;5028212;28;20032;-77
2022/08/06 10:23:33;;;;;;;0.68;0.00;;;;;;;;;;5045583;28;20392;-77
2022/08/06 10:25:59;;;;;;;0.45;0.00;;;;;;;;;;5041548;28;20021;-77
2022/08/06 10:28:25;;;;;;;3.20;0.08;;;;;;;;;;5028977;28;20035;-77
2022/08/06 10:30:51;;;;;;;0.80;0.00;;;;;;;;;;5029257;28;20028;-80
2022/08/06 10:33:17;;;;;;;0.47;0.00;;;;;;;;;;5029556;28;20029;-81
2022/08/06 10:35:43;;;;;;;0.60;0.10;;;;;;;;;;5030327;28;20037;-81
2022/08/06 10:38:13;;;;;;;0.20;0.10;;;;;;;;;;5045378;28;20075;-81
2022/08/06 10:40:39;;;;;;;0.88;0.03;;;;;;;;;;5047622;28;20012;-81
2022/08/06 10:43:06;;;;;;;0.73;0.00;;;;;;;;;;5028122;28;20450;-83
2022/08/06 10:45:33;;;;;;;0.30;0.00;;;;;;;;;;5028574;28;20017;-80
2022/08/06 10:47:58;;;;;;;0.70;0.10;;;;;;;;;;5030076;28;20016;-79
2022/08/06 10:50:24;;;;;;;0.63;0.00;;;;;;;;;;5028435;28;20477;-80
2022/08/06 10:52:49;;;;;;;1.80;0.10;;;;;;;;;;5029693;28;20024;-80
2022/08/06 10:55:14;;;;;;;0.68;0.00;;;;;;;;;;5027095;28;20548;-80
2022/08/06 10:57:58;;;;;;;2.22;0.10;;;;;;;;;;5026125;28;20032;-87
2022/08/06 11:00:24;;;;;;;0.30;0.10;;;;;;;;;;5024985;28;20024;-81
2022/08/06 11:02:55;;;;;;;1.45;0.00;;;;;;;;;;5037996;28;20040;-81
2022/08/06 11:05:28;;;;;;;0.22;0.00;;;;;;;;;;5062117;28;20356;-80
2022/08/06 11:08:00;;;;;;;0.20;0.00;;;;;;;;;;5068439;28;20017;-81
2022/08/06 11:10:34;;;;;;;1.20;0.00;;;;;;;;;;5067273;28;20020;-80
2022/08/06 11:13:05;;;;;;;0.22;0.00;;;;;;;;;;5066955;28;20055;-80
2022/08/06 11:15:37;;;;;;;0.57;0.10;;;;;;;;;;5068359;28;20036;-80
2022/08/06 11:18:06;;;;;;;1.00;0.10;;;;;;;;;;5070369;28;20044;-80
2022/08/06 11:20:32;;;;;;;0.70;0.10;;;;;;;;;;5065003;28;20428;-81
2022/08/06 11:23:00;;;;;;;2.97;0.17;;;;;;;;;;5069480;28;20115;-80
2022/08/06 11:25:39;;;;;;;0.43;0.00;;;;;;;;;;5069220;28;20019;-80
2022/08/06 11:28:04;;;;;;;0.43;0.03;;;;;;;;;;5069289;28;20082;-80
2022/08/06 11:30:39;;;;;;;0.40;0.00;;;;;;;;;;5065839;28;20016;-80
2022/08/06 11:33:04;;;;;;;;;;;;;;;;;;5067734;28;20111;-80
2022/08/06 11:35:32;;;;;;;0.20;0.00;;;;;;;;;;5066255;28;20003;-80
2022/08/06 11:37:58;;;;;;;0.45;0.00;;;;;;;;;;5065403;28;20027;-80
2022/08/06 11:40:24;;;;;;;0.30;0.03;;;;;;;;;;5066436;28;20482;-80
2022/08/06 11:42:49;;;;;;;0.32;0.00;;;;;;;;;;5066034;28;20111;-80
2022/08/06 11:45:14;;;;;;;0.38;0.10;;;;;;;;;;5042043;28;20024;-80
2022/08/06 11:47:59;;;;;;;0.10;0.00;;;;;;;;;;5064234;28;20043;-80
2022/08/06 11:50:25;;;;;;;0.40;0.00;;;;;;;;;;5063793;28;20024;-80
2022/08/06 11:52:50;;;;;;;0.25;0.10;;;;;;;;;;5063694;28;20029;-80
2022/08/06 11:55:15;;;;;;;0.52;0.00;;;;;;;;;;5059373;28;20082;-80
2022/08/06 11:57:41;;;;;;;1.25;0.10;;;;;;;;;;5061214;28;20392;-80
2022/08/06 12:00:13;;;;;;;0.13;0.00;;;;;;;;;;5064495;28;20090;-80
2022/08/06 12:02:39;;;;;;;0.52;0.20;;;;;;;;;;5063576;28;20040;-81
2022/08/06 12:05:04;;;;;;;0.20;0.00;;;;;;;;;;5063938;28;20075;-81
2022/08/06 12:07:31;;;;;;;0.47;0.10;;;;;;;;;;5064744;28;20016;-80
2022/08/06 12:10:05;;;;;;;0.43;0.00;;;;;;;;;;5047535;28;20025;-80
2022/08/06 12:12:45;;;;;;;0.32;0.00;;;;;;;;;;5062458;28;20151;-77
2022/08/06 12:15:13;;;;;;;0.22;0.00;;;;;;;;;;5066256;28;20017;-80
2022/08/06 12:17:39;;;;;;;1.08;0.10;;;;;;;;;;5062605;28;20082;-80
2022/08/06 12:20:06;;;;;;;1.25;0.00;;;;;;;;;;5057684;28;20021;-78
2022/08/06 12:22:32;;;;;;;0.40;0.00;;;;;;;;;;5062498;28;20525;-78
2022/08/06 12:24:58;;;;;;;0.10;0.00;;;;;;;;;;5062047;28;20039;-79
2022/08/06 12:30:46;;;;;;;0.20;0.10;;;;;;;;;;5027191;28;20033;-79
2022/08/06 12:33:12;;;;;;;1.05;0.10;;;;;;;;;;5060692;28;20510;-79
2022/08/06 12:35:57;;;;;;;0.52;0.10;;;;;;;;;;5063443;28;20020;-79
2022/08/06 12:38:26;;;;;;;0.50;0.08;;;;;;;;;;5060175;28;20111;-80
2022/08/06 12:40:56;;;;;;;1.40;0.10;;;;;;;;;;5063082;28;20017;-79
2022/08/06 12:43:21;;;;;;;0.28;0.10;;;;;;;;;;5062594;28;20035;-79
2022/08/06 12:45:47;;;;;;;0.75;0.10;;;;;;;;;;5063350;28;20033;-80
2022/08/06 12:48:12;;;;;;;0.25;0.00;;;;;;;;;;5060950;28;20483;-79
2022/08/06 12:50:41;;;;;;;0.20;0.00;;;;;;;;;;5064575;28;20107;-79
2022/08/06 12:53:14;;;;;;;0.85;0.10;;;;;;;;;;5066551;28;20020;-79
2022/08/06 12:55:44;;;;;;;0.20;0.03;;;;;;;;;;5063759;28;20016;-79
2022/08/06 12:58:10;;;;;;;0.70;0.00;;;;;;;;;;5067954;28;20185;-79
2022/08/06 13:00:36;;;;;;;1.08;0.00;;;;;;;;;;5067635;28;20024;-80
2022/08/06 13:03:03;;;;;;;0.20;0.10;;;;;;;;;;5066822;28;20513;-79
2022/08/06 13:05:29;;;;;;;0.50;0.10;;;;;;;;;;5064967;28;20021;-78
2022/08/06 13:07:55;;;;;;;0.50;0.10;;;;;;;;;;5051219;28;20024;-80
2022/08/06 13:10:21;;;;;;;0.85;0.10;;;;;;;;;;5066988;28;20027;-79
2022/08/06 13:12:56;;;;;;;0.35;0.10;;;;;;;;;;5067614;28;20024;-80
2022/08/06 13:15:21;;;;;;;0.90;0.10;;;;;;;;;;5048461;28;20142;-79
2022/08/06 13:18:15;;;;;;;;;;;;;;;;;;;;;
2022/08/06 13:20:41;;;;;;;0.30;0.08;;;;;;;;;;5061811;28;20013;-79
2022/08/06 13:23:07;;;;;;;0.33;0.10;;;;;;;;;;5061613;28;20032;-79
2022/08/06 13:25:40;;;;;;;1.88;0.10;;;;;;;;;;5064191;28;20046;-79
2022/08/06 13:28:13;;;;;;;0.40;0.30;;;;;;;;;;5065637;28;20051;-79
2022/08/06 13:30:39;;;;;;;0.30;0.10;;;;;;;;;;5063724;28;20028;-80
2022/08/06 13:33:15;;;;;;;1.15;0.10;;;;;;;;;;5068091;28;20353;-80
2022/08/06 13:35:40;;;;;;;0.22;0.03;;;;;;;;;;5067741;28;20012;-81
2022/08/06 13:38:09;;;;;;;0.40;0.10;;;;;;;;;;5062886;28;20505;-80
2022/08/06 13:40:48;;;;;;;0.45;0.10;;;;;;;;;;5045922;28;20029;-81
2022/08/06 13:43:14;;;;;;;1.45;0.10;;;;;;;;;;5067593;28;20475;-81
2022/08/06 13:45:39;;;;;;;0.28;0.20;;;;;;;;;;5069948;28;20466;-80
2022/08/06 13:48:09;;;;;;;0.47;0.10;;;;;;;;;;5066694;28;20460;-80
2022/08/06 13:50:35;;;;;;;1.05;0.00;;;;;;;;;;5061096;28;20293;-80
2022/08/06 13:53:01;;;;;;;0.30;0.10;;;;;;;;;;5063421;28;20047;-80
2022/08/06 13:55:29;;;;;;;0.25;0.10;;;;;;;;;;5064362;28;20478;-80
2022/08/06 13:57:58;;;;;;;0.25;0.00;;;;;;;;;;5063898;28;20037;-80
2022/08/06 14:00:26;;;;;;;1.05;0.10;;;;;;;;;;5063998;28;20017;-80
2022/08/06 14:02:59;;;;;;;0.63;0.10;;;;;;;;;;5061951;28;20041;-80
2022/08/06 14:05:24;;;;;;;0.45;0.05;;;;;;;;;;5062818;28;20037;-80
2022/08/06 14:07:50;;;;;;;1.33;0.23;;;;;;;;;;5068976;28;20035;-80
2022/08/06 14:10:17;;;;;;;0.20;0.00;;;;;;;;;;5056754;28;20025;-79
2022/08/06 14:12:43;;;;;;;0.30;0.10;;;;;;;;;;5061445;28;20025;-80
2022/08/06 14:15:08;;;;;;;0.75;0.10;;;;;;;;;;5063707;28;20027;-81
2022/08/06 14:17:34;;;;;;;0.70;0.10;;;;;;;;;;5057208;28;20035;-81
2022/08/06 14:19:59;;;;;;;0.20;0.10;;;;;;;;;;5056161;28;20027;-81
2022/08/06 14:22:24;;;;;;;2.57;0.10;;;;;;;;;;5061912;28;20497;-82
2022/08/06 14:24:49;;;;;;;1.37;0.10;;;;;;;;;;5064798;28;20275;-80
2022/08/06 14:27:15;;;;;;;0.10;0.10;;;;;;;;;;5063492;28;20279;-80
2022/08/06 14:29:40;;;;;;;7.73;0.53;;;;;;;;;;5051372;28;20032;-78
2022/08/06 14:32:07;;;;;;;1.47;0.10;;;;;;;;;;5071830;28;20395;-80
2022/08/06 14:34:32;;;;;;;1.65;0.25;;;;;;;;;;5068098;28;20020;-78
2022/08/06 14:36:58;;;;;;;1.40;0.25;;;;;;;;;;5069132;28;20031;-78
2022/08/06 14:39:23;;;;;;;1.10;0.17;;;;;;;;;;5069351;28;20142;-79
2022/08/06 14:47:16;;;;;;;0.30;0.20;;;;;;;;;;5071701;28;20459;-81
2022/08/06 14:49:41;;;;;;;0.57;0.10;;;;;;;;;;5053846;28;20112;-80
2022/08/06 14:52:07;;;;;;;0.50;0.10;;;;;;;;;;5070071;28;20320;-80
2022/08/06 14:54:33;;;;;;;1.13;0.13;;;;;;;;;;5070246;28;20275;-80
2022/08/06 14:57:02;;;;;;;0.50;0.10;;;;;;;;;;5071480;28;20024;-81
2022/08/06 14:59:28;;;;;;;1.40;0.13;;;;;;;;;;5071760;28;20032;-80
2022/08/06 15:01:53;;;;;;;0.80;0.10;;;;;;;;;;5071149;28;20502;-80
2022/08/06 15:04:19;;;;;;;0.50;0.20;;;;;;;;;;5069825;28;20052;-80
2022/08/06 15:06:44;;;;;;;0.50;0.10;;;;;;;;;;5051448;28;20656;-81
2022/08/06 15:09:11;;;;;;;1.93;0.10;;;;;;;;;;5070779;28;20378;-81
2022/08/06 15:11:37;;;;;;;0.30;0.10;;;;;;;;;;5050588;28;20021;-81
2022/08/06 15:14:02;;;;;;;0.40;0.10;;;;;;;;;;5052180;28;20124;-80
2022/08/06 15:16:27;;;;;;;0.60;0.10;;;;;;;;;;5050257;28;20028;-79
2022/08/06 15:18:53;;;;;;;0.50;0.20;;;;;;;;;;5052338;28;20535;-80
2022/08/06 15:21:19;;;;;;;0.65;0.10;;;;;;;;;;5060274;28;20034;-79
2022/08/06 15:23:45;;;;;;;1.23;0.10;;;;;;;;;;5091183;28;20122;-80
2022/08/06 15:26:10;;;;;;;0.52;0.10;;;;;;;;;;5082044;28;20087;-79
2022/08/06 15:28:35;;;;;;;0.15;0.10;;;;;;;;;;5069499;28;20028;-80
2022/08/06 15:31:02;;;;;;;0.40;0.00;;;;;;;;;;5070793;28;20463;-81
2022/08/06 15:33:27;;;;;;;0.65;0.10;;;;;;;;;;5070050;28;20063;-81
2022/08/06 15:35:53;;;;;;;0.25;0.10;;;;;;;;;;5069851;28;20621;-80
2022/08/06 15:38:18;;;;;;;1.38;0.20;;;;;;;;;;5069752;28;20025;-81
2022/08/06 15:40:43;;;;;;;0.53;0.10;;;;;;;;;;5070390;28;20453;-80
2022/08/06 15:43:09;;;;;;;0.40;0.10;;;;;;;;;;5069860;28;20279;-80
2022/08/06 15:45:34;;;;;;;0.10;0.10;;;;;;;;;;5068931;28;20021;-80
2022/08/06 15:47:59;;;;;;;0.30;0.10;;;;;;;;;;5056272;28;20276;-81
2022/08/06 15:50:25;;;;;;;0.17;0.10;;;;;;;;;;5053720;28;20099;-80
2022/08/06 15:52:51;;;;;;;0.20;0.10;;;;;;;;;;5069505;28;20021;-79
2022/08/06 15:55:16;;;;;;;1.13;0.10;;;;;;;;;;5071896;28;20025;-80
2022/08/06 15:57:41;;;;;;;0.20;0.13;;;;;;;;;;5052135;28;20036;-80
2022/08/06 16:00:07;;;;;;;0.00;0.00;;;;;;;;;;5070678;28;20029;-81
2022/08/06 16:02:32;;;;;;;0.30;0.10;;;;;;;;;;5058176;28;20041;-80
2022/08/06 16:04:58;;;;;;;0.30;0.20;;;;;;;;;;5063606;28;20102;-80
2022/08/06 16:07:23;;;;;;;0.30;0.20;;;;;;;;;;5065938;28;20025;-80
2022/08/06 16:09:49;;;;;;;0.55;0.10;;;;;;;;;;5066104;28;20281;-79
2022/08/06 16:12:14;;;;;;;2.88;2.88;;;;;;;;;;5068192;28;20020;-83
2022/08/06 16:14:40;;;;;;;13.52;13.13;;;;;;;;;;5046387;28;20025;-79
2022/08/06 16:17:05;;;;;;;0.75;0.00;;;;;;;;;;5043779;28;20021;-75
2022/08/06 16:19:31;;;;;;;1.20;0.10;;;;;;;;;;5061615;28;20047;-75
2022/08/06 16:21:56;;;;;;;0.73;0.10;;;;;;;;;;5070685;28;20020;-77
2022/08/06 16:24:21;;;;;;;0.55;0.00;;;;;;;;;;5077493;28;20078;-76
2022/08/06 16:26:47;;;;;;;2.95;1.70;;;;;;;;;;5056128;28;20403;-76
2022/08/06 16:29:12;;;;;;;2.50;1.20;;;;;;;;;;5073178;28;20024;-76
2022/08/06 16:31:37;;;;;;;2.35;1.08;;;;;;;;;;5072924;28;20349;-80
2022/08/06 16:34:03;;;;;;;2.55;0.60;;;;;;;;;;5066454;28;20047;-77
2022/08/06 16:36:28;;;;;;;2.63;0.10;;;;;;;;;;5061623;28;20029;-75
2022/08/06 16:38:53;;;;;;;0.43;0.20;;;;;;;;;;5063696;28;20025;-76
2022/08/06 16:41:18;;;;;;;0.60;0.20;;;;;;;;;;5074157;28;20324;-76
2022/08/06 16:43:46;;;;;;;0.68;0.30;;;;;;;;;;5070806;28;20036;-77
2022/08/06 16:46:12;;;;;;;0.47;0.38;;;;;;;;;;5072996;28;20044;-75
2022/08/06 16:48:37;;;;;;;0.82;0.60;;;;;;;;;;5066842;28;20067;-75
2022/08/06 16:51:02;;;;;;;0.60;0.60;;;;;;;;;;5066905;28;20406;-75
2022/08/06 16:53:28;;;;;;;1.40;1.40;;;;;;;;;;5071962;28;20343;-76
2022/08/06 16:55:54;;;;;;;1.08;1.08;;;;;;;;;;5048559;28;20303;-75
2022/08/06 16:58:19;;;;;;;1.23;1.23;;;;;;;;;;5073314;28;20035;-76
2022/08/06 17:00:45;;;;;;;1.00;1.00;;;;;;;;;;5071577;28;20115;-78
2022/08/06 17:03:10;;;;;;;1.45;1.40;;;;;;;;;;5051358;28;20792;-75
2022/08/06 17:05:37;;;;;;;2.40;2.40;;;;;;;;;;5070886;28;20033;-76
2022/08/06 17:08:02;;;;;;;1.77;1.70;;;;;;;;;;5073530;28;20028;-76
2022/08/06 17:10:28;;;;;;;3.20;3.10;;;;;;;;;;5071185;28;20191;-77
2022/08/06 17:12:53;;;;;;;6.13;5.97;;;;;;;;;;5072570;28;20073;-76
2022/08/06 17:15:20;;;;;;;0.90;0.17;;;;;;;;;;5072331;28;20150;-77
2022/08/06 17:17:46;;;;;;;1.10;0.55;;;;;;;;;;5073230;28;20107;-75
2022/08/06 17:20:11;;;;;;;0.20;0.10;;;;;;;;;;5065351;28;20108;-75
2022/08/06 17:22:37;;;;;;;0.98;0.10;;;;;;;;;;5071307;28;20503;-76
2022/08/06 17:25:02;;;;;;;1.02;0.10;;;;;;;;;;5068131;28;20051;-75
2022/08/06 17:27:27;;;;;;;0.85;0.00;;;;;;;;;;5051010;28;20048;-74
2022/08/06 17:29:53;;;;;;;1.17;0.00;;;;;;;;;;5070893;28;20498;-74
2022/08/06 17:32:19;;;;;;;0.50;0.10;;;;;;;;;;5072066;28;20020;-75
2022/08/06 17:34:44;;;;;;;0.20;0.03;;;;;;;;;;5069118;28;20285;-76
2022/08/06 17:37:10;;;;;;;0.10;0.10;;;;;;;;;;5069239;28;20479;-76
2022/08/06 17:39:35;;;;;;;0.30;0.10;;;;;;;;;;5067564;28;20060;-76
2022/08/06 17:42:01;;;;;;;0.65;0.03;;;;;;;;;;5067496;28;20032;-76
2022/08/06 17:44:26;;;;;;;0.20;0.00;;;;;;;;;;5068645;28;20495;-76
2022/08/06 17:46:51;;;;;;;0.32;0.10;;;;;;;;;;5066207;28;20027;-76
2022/08/06 17:49:19;;;;;;;0.13;0.00;;;;;;;;;;5072619;28;20017;-76
2022/08/06 17:51:44;;;;;;;0.10;0.00;;;;;;;;;;5059271;28;20025;-76
2022/08/06 17:54:10;;;;;;;1.05;0.10;;;;;;;;;;5071022;28;20479;-76
2022/08/06 17:56:35;;;;;;;1.27;0.10;;;;;;;;;;5069845;28;20468;-76
2022/08/06 17:59:01;;;;;;;0.93;0.10;;;;;;;;;;5073006;28;20027;-76
2022/08/06 18:01:26;;;;;;;0.20;0.10;;;;;;;;;;5067937;28;20028;-76
2022/08/06 18:03:51;;;;;;;0.35;0.00;;;;;;;;;;5066726;28;20552;-76
2022/08/06 18:06:17;;;;;;;0.47;0.05;;;;;;;;;;5051566;28;20032;-76
2022/08/06 18:08:43;;;;;;;0.50;0.10;;;;;;;;;;5072593;28;20047;-76
2022/08/06 18:11:08;;;;;;;0.30;0.13;;;;;;;;;;5064382;28;20024;-76
2022/08/06 18:13:34;;;;;;;1.30;0.20;;;;;;;;;;5072238;28;20043;-76
2022/08/06 18:15:59;;;;;;;0.38;0.00;;;;;;;;;;5072377;28;20155;-76
2022/08/06 18:18:25;;;;;;;1.13;0.00;;;;;;;;;;5071399;28;20035;-76
2022/08/06 18:20:50;;;;;;;0.47;0.00;;;;;;;;;;5067636;28;20439;-76
2022/08/06 18:23:15;;;;;;;0.95;0.10;;;;;;;;;;5064846;28;20036;-76
2022/08/06 18:25:41;;;;;;;0.30;0.10;;;;;;;;;;5059528;28;20027;-75
2022/08/06 18:28:06;;;;;;;0.10;0.00;;;;;;;;;;5059997;28;20441;-76
2022/08/06 18:30:32;;;;;;;0.40;0.10;;;;;;;;;;5060708;28;20099;-76
2022/08/06 18:32:57;;;;;;;0.52;0.17;;;;;;;;;;5064881;28;20055;-76
2022/08/06 18:35:23;;;;;;;1.45;0.10;;;;;;;;;;5065360;28;20112;-76
2022/08/06 18:37:48;;;;;;;1.08;0.10;;;;;;;;;;5065046;28;20750;-76
2022/08/06 18:40:13;;;;;;;1.55;0.10;;;;;;;;;;5067066;28;20063;-76
2022/08/06 18:42:40;;;;;;;0.38;0.10;;;;;;;;;;5061244;28;20032;-76
2022/08/06 18:45:07;;;;;;;0.55;0.10;;;;;;;;;;5059443;28;20031;-76
2022/08/06 18:47:32;;;;;;;0.40;0.20;;;;;;;;;;5064614;28;20028;-76
2022/08/06 18:49:57;;;;;;;1.13;0.10;;;;;;;;;;5060588;28;20536;-76
2022/08/06 18:52:26;;;;;;;0.30;0.08;;;;;;;;;;5051864;28;21256;-76
2022/08/06 18:54:53;;;;;;;0.40;0.10;;;;;;;;;;5055408;28;20127;-76
2022/08/06 18:57:18;;;;;;;1.80;0.10;;;;;;;;;;5064247;28;20115;-76
2022/08/06 18:59:43;;;;;;;1.75;0.20;;;;;;;;;;5067237;28;20111;-76
2022/08/06 19:02:09;;;;;;;0.68;0.20;;;;;;;;;;5066673;28;20055;-76
2022/08/06 19:04:35;;;;;;;0.40;0.20;;;;;;;;;;5047917;28;20052;-75
2022/08/06 19:07:01;;;;;;;0.25;0.20;;;;;;;;;;5051125;28;20410;-75
2022/08/06 19:09:28;;;;;;;0.40;0.10;;;;;;;;;;5047925;28;20111;-75
2022/08/06 19:11:53;;;;;;;0.20;0.10;;;;;;;;;;5033140;28;20029;-75
2022/08/06 19:14:19;;;;;;;0.80;0.20;;;;;;;;;;5046355;28;20501;-76
2022/08/06 19:16:45;;;;;;;0.40;0.10;;;;;;;;;;5030293;28;20036;-75
2022/08/06 19:19:10;;;;;;;1.95;0.10;;;;;;;;;;5014368;28;20021;-75
2022/08/06 19:21:35;;;;;;;0.10;0.10;;;;;;;;;;5031976;28;20028;-75
2022/08/06 19:24:01;;;;;;;5.70;0.20;;;;;;;;;;5029633;28;20361;-74
2022/08/06 19:26:26;;;;;;;1.80;0.10;;;;;;;;;;5030435;28;20039;-74
2022/08/06 19:28:51;;;;;;;0.68;0.15;;;;;;;;;;5051161;28;20460;-75
2022/08/06 19:31:20;;;;;;;0.30;0.10;;;;;;;;;;5024639;28;20762;-76
2022/08/06 19:33:45;;;;;;;0.50;0.10;;;;;;;;;;5049053;28;20036;-76
2022/08/06 19:36:10;;;;;;;0.60;0.20;;;;;;;;;;5045967;28;20480;-76
2022/08/06 19:38:35;;;;;;;0.65;0.30;;;;;;;;;;5012259;28;20048;-75
2022/08/06 19:41:02;;;;;;;0.32;0.10;;;;;;;;;;5029245;28;20086;-76
2022/08/06 19:43:28;;;;;;;0.68;0.10;;;;;;;;;;5029748;28;20025;-76
2022/08/06 19:45:53;;;;;;;0.35;0.20;;;;;;;;;;5043577;28;20028;-76
2022/08/06 19:48:19;;;;;;;1.00;0.20;;;;;;;;;;5046139;28;20441;-76
2022/08/06 19:50:44;;;;;;;1.48;0.10;;;;;;;;;;5044000;28;20033;-76
2022/08/06 19:53:09;;;;;;;0.38;0.10;;;;;;;;;;5027215;28;20472;-75
2022/08/06 19:55:35;;;;;;;0.63;0.20;;;;;;;;;;5044830;28;20274;-75
2022/08/06 19:58:01;;;;;;;1.27;0.20;;;;;;;;;;5044822;28;20368;-76
2022/08/06 20:00:26;;;;;;;0.80;0.10;;;;;;;;;;5043803;28;20384;-75
2022/08/06 20:02:52;;;;;;;0.68;0.20;;;;;;;;;;5033214;28;20044;-75
2022/08/06 20:05:18;;;;;;;0.55;0.10;;;;;;;;;;5062152;28;20028;-75
2022/08/06 20:07:43;;;;;;;0.75;0.10;;;;;;;;;;5063600;28;20071;-77
2022/08/06 20:10:09;;;;;;;0.40;0.10;;;;;;;;;;5064169;28;20541;-76
2022/08/06 20:12:35;;;;;;;1.10;0.45;;;;;;;;;;5063981;28;20025;-76
2022/08/06 20:15:04;;;;;;;0.98;0.20;;;;;;;;;;5048234;28;20025;-76
2022/08/06 20:17:29;;;;;;;0.55;0.20;;;;;;;;;;5064848;28;20108;-76
2022/08/06 20:19:55;;;;;;;1.55;0.30;;;;;;;;;;5061789;28;20119;-77
2022/08/06 20:22:22;;;;;;;2.47;0.45;;;;;;;;;;5066320;28;20012;-76
2022/08/06 20:24:55;;;;;;;2.10;0.30;;;;;;;;;;5047764;28;20032;-78
2022/08/06 20:27:21;;;;;;;1.63;0.30;;;;;;;;;;5046614;28;20039;-76
2022/08/06 20:29:46;;;;;;;0.70;0.30;;;;;;;;;;5069077;28;20028;-76
2022/08/06 20:32:11;;;;;;;1.10;0.50;;;;;;;;;;5068822;28;20040;-77
2022/08/06 20:34:36;;;;;;;1.75;0.45;;;;;;;;;;5065302;28;20028;-77
2022/08/06 20:37:04;;;;;;;2.40;0.65;;;;;;;;;;5065018;28;20025;-77
2022/08/06 20:39:30;;;;;;;1.20;0.40;;;;;;;;;;5068252;28;20013;-77
2022/08/06 20:41:55;;;;;;;1.63;0.60;;;;;;;;;;5070416;28;20571;-77
2022/08/06 20:44:20;;;;;;;1.38;0.50;;;;;;;;;;5066345;28;20020;-76
2022/08/06 20:46:46;;;;;;;0.73;0.30;;;;;;;;;;5065392;28;20517;-76
2022/08/06 20:49:11;;;;;;;1.33;0.32;;;;;;;;;;5067068;28;20025;-76
2022/08/06 20:51:37;;;;;;;0.40;0.40;;;;;;;;;;5066889;28;20071;-75
2022/08/06 20:54:03;;;;;;;1.25;0.50;;;;;;;;;;5063507;28;20500;-75
2022/08/06 20:56:28;;;;;;;2.33;0.40;;;;;;;;;;5063254;28;20027;-76
2022/08/06 20:58:53;;;;;;;2.35;0.90;;;;;;;;;;5061843;28;20090;-77
2022/08/06 21:01:19;;;;;;;1.75;0.40;;;;;;;;;;5060036;28;20556;-76
2022/08/06 21:03:44;;;;;;;2.42;0.55;;;;;;;;;;5055046;28;20048;-76
2022/08/06 21:06:09;;;;;;;1.48;0.43;;;;;;;;;;5055709;28;20029;-76
2022/08/06 21:08:35;;;;;;;1.08;0.60;;;;;;;;;;5061151;28;20032;-76
2022/08/06 21:11:00;;;;;;;0.95;0.50;;;;;;;;;;5059604;28;20423;-75
2022/08/06 21:13:25;;;;;;;0.80;0.65;;;;;;;;;;5061285;28;20020;-75
2022/08/06 21:15:51;;;;;;;0.63;0.57;;;;;;;;;;5065767;28;20158;-75
2022/08/06 21:18:17;;;;;;;0.65;0.47;;;;;;;;;;5061322;28;20048;-75
2022/08/06 21:20:44;;;;;;;1.13;0.40;;;;;;;;;;5058796;28;20077;-75
2022/08/06 21:23:09;;;;;;;1.67;0.75;;;;;;;;;;5056825;28;20028;-75
2022/08/06 21:25:35;;;;;;;1.52;0.40;;;;;;;;;;5060692;28;20487;-77
2022/08/06 21:28:00;;;;;;;0.80;0.40;;;;;;;;;;5059180;28;20065;-76
2022/08/06 21:30:26;;;;;;;0.73;0.30;;;;;;;;;;5062794;28;20036;-75
2022/08/06 21:32:52;;;;;;;0.68;0.40;;;;;;;;;;5057736;28;20127;-75
2022/08/06 21:35:18;;;;;;;1.25;0.40;;;;;;;;;;5061007;28;20487;-74
2022/08/06 21:37:43;;;;;;;0.80;0.60;;;;;;;;;;5056405;28;20031;-75
2022/08/06 21:40:09;;;;;;;2.42;0.60;;;;;;;;;;5059826;28;20028;-75
2022/08/06 21:42:35;;;;;;;0.88;0.50;;;;;;;;;;5057924;28;20460;-75
2022/08/06 21:45:01;;;;;;;1.83;0.70;;;;;;;;;;5062147;28;20429;-75
2022/08/06 21:47:26;;;;;;;1.10;0.80;;;;;;;;;;5066751;28;20020;-75
2022/08/06 21:49:52;;;;;;;1.52;1.08;;;;;;;;;;5063507;28;20050;-75
2022/08/06 21:52:18;;;;;;;1.08;0.90;;;;;;;;;;5061611;28;20036;-75
2022/08/06 21:54:43;;;;;;;1.00;0.80;;;;;;;;;;5050532;28;20021;-74
2022/08/06 21:57:08;;;;;;;1.27;1.10;;;;;;;;;;5041968;28;20032;-75
2022/08/06 21:59:35;;;;;;;1.88;1.45;;;;;;;;;;5064495;28;20476;-75
2022/08/06 22:02:00;;;;;;;2.45;1.55;;;;;;;;;;5069649;28;20429;-75
2022/08/06 22:04:25;;;;;;;1.35;1.17;;;;;;;;;;5062685;28;20502;-74
2022/08/06 22:06:51;;;;;;;1.33;1.20;;;;;;;;;;5065860;28;20111;-75
2022/08/06 22:09:16;;;;;;;2.72;1.30;;;;;;;;;;5067451;28;20471;-75
2022/08/06 22:11:41;;;;;;;1.30;1.10;;;;;;;;;;5066221;28;20099;-75
2022/08/06 22:14:06;;;;;;;1.90;0.90;;;;;;;;;;5067804;28;20025;-74
2022/08/06 22:16:32;;;;;;;2.08;1.17;;;;;;;;;;5063350;28;20060;-74
2022/08/06 22:18:57;;;;;;;1.75;1.15;;;;;;;;;;5059338;28;20518;-75
2022/08/06 22:21:23;;;;;;;1.48;1.20;;;;;;;;;;5055705;28;20097;-74
2022/08/06 22:23:48;;;;;;;2.30;1.08;;;;;;;;;;5066895;28;20030;-74
2022/08/06 22:26:13;;;;;;;1.92;1.05;;;;;;;;;;5066771;28;20029;-74
2022/08/06 22:28:39;;;;;;;1.10;0.93;;;;;;;;;;5062310;28;20033;-74
2022/08/06 22:31:04;;;;;;;1.92;0.80;;;;;;;;;;5061096;28;20447;-73
2022/08/06 22:33:29;;;;;;;1.08;0.90;;;;;;;;;;5065056;28;20016;-74
2022/08/06 22:35:55;;;;;;;0.93;0.75;;;;;;;;;;5062319;28;20479;-74
2022/08/06 22:38:20;;;;;;;2.05;0.75;;;;;;;;;;5063258;28;20464;-73
2022/08/06 22:40:47;;;;;;;1.08;0.98;;;;;;;;;;5058806;28;20028;-73
2022/08/06 22:43:13;;;;;;;1.30;0.70;;;;;;;;;;5059682;28;20016;-73
2022/08/06 22:45:39;;;;;;;1.80;0.75;;;;;;;;;;5061247;28;20698;-73
2022/08/06 22:48:04;;;;;;;1.35;0.98;;;;;;;;;;5060675;28;20078;-73
2022/08/06 22:50:30;;;;;;;2.50;0.90;;;;;;;;;;5056886;28;20028;-73
2022/08/06 22:52:58;;;;;;;2.03;1.10;;;;;;;;;;5062591;28;20475;-73
2022/08/06 22:55:24;;;;;;;1.98;1.30;;;;;;;;;;5061145;28;20024;-73